Time;durP1;ratioP1;P1;durP2;ratioP2;P2;SDS_P1;SDS_P2;PMS_P1;PMS_P2;Temp;Humidity;BMP_temperature;BMP_pressure;BME280_temperature;BME280_humidity;BME280_pressure;Samples;Min_cycle;Max_cycle;Signal;HPM_P1;HPM_P2
2022/05/08 00:01:20;;;;;;;3.80;3.10;;;19.50;92.20;;;;;;5099318;27;47087;-81
2022/05/08 00:03:47;;;;;;;3.88;2.92;;;19.50;92.20;;;;;;5103829;27;45684;-81
2022/05/08 00:06:15;;;;;;;4.03;3.03;;;19.50;92.20;;;;;;5107156;27;47176;-81
2022/05/08 00:08:42;;;;;;;4.55;3.15;;;19.50;92.10;;;;;;5095278;27;45697;-81
2022/05/08 00:11:08;;;;;;;3.42;2.85;;;19.50;92.10;;;;;;5107512;27;45298;-81
2022/05/08 00:13:36;;;;;;;4.35;3.33;;;19.50;92.10;;;;;;5105862;27;45260;-81
2022/05/08 00:16:03;;;;;;;3.90;3.05;;;19.50;92.10;;;;;;5103102;27;47007;-81
2022/05/08 00:18:30;;;;;;;4.25;3.22;;;19.50;92.10;;;;;;5106273;27;46264;-81
2022/05/08 00:20:57;;;;;;;4.32;3.05;;;19.50;92.10;;;;;;5107686;27;45313;-81
2022/05/08 00:23:25;;;;;;;6.25;3.70;;;19.50;92.10;;;;;;5107460;27;45313;-81
2022/05/08 00:25:51;;;;;;;4.45;3.33;;;19.50;92.10;;;;;;5105516;27;46552;-81
2022/05/08 00:28:18;;;;;;;5.45;3.72;;;19.50;92.00;;;;;;5105900;27;45298;-82
2022/05/08 00:30:45;;;;;;;4.93;3.60;;;19.50;92.10;;;;;;5103647;27;45533;-82
2022/05/08 00:33:12;;;;;;;4.28;3.25;;;19.50;92.10;;;;;;5104656;27;45299;-81
2022/05/08 00:35:39;;;;;;;5.43;4.00;;;19.50;92.20;;;;;;5106921;27;46703;-81
2022/05/08 00:38:06;;;;;;;4.60;3.45;;;19.50;92.10;;;;;;5104908;27;45133;-81
2022/05/08 00:40:35;;;;;;;4.65;3.47;;;19.50;92.20;;;;;;5107526;27;46146;-81
2022/05/08 00:43:28;;;;;;;5.15;3.90;;;19.50;92.00;;;;;;5109463;27;45226;-81
2022/05/08 00:45:55;;;;;;;4.90;3.80;;;19.50;92.20;;;;;;5107440;27;46430;-81
2022/05/08 00:48:22;;;;;;;4.95;3.65;;;19.50;92.10;;;;;;5108037;27;45172;-81
2022/05/08 00:50:51;;;;;;;5.00;3.78;;;19.50;92.10;;;;;;5107584;27;45605;-81
2022/05/08 00:53:18;;;;;;;4.68;3.88;;;19.50;92.10;;;;;;5110504;27;45199;-81
2022/05/08 00:55:46;;;;;;;5.47;3.88;;;19.50;92.10;;;;;;5109574;27;46992;-81
2022/05/08 00:58:14;;;;;;;4.97;3.60;;;19.60;92.10;;;;;;5109225;27;45482;-81
2022/05/08 01:00:41;;;;;;;4.47;3.78;;;19.50;92.00;;;;;;5107071;27;45245;-82
2022/05/08 01:03:08;;;;;;;4.78;4.00;;;19.50;92.00;;;;;;5109428;27;45440;-81
2022/05/08 01:05:41;;;;;;;6.18;4.10;;;19.50;92.00;;;;;;5107032;27;47372;-81
2022/05/08 01:08:08;;;;;;;4.10;3.70;;;19.60;92.10;;;;;;5104843;27;45276;-81
2022/05/08 01:10:36;;;;;;;6.25;4.00;;;19.60;92.00;;;;;;5106588;27;45490;-81
2022/05/08 01:13:04;;;;;;;4.60;3.28;;;19.60;92.10;;;;;;5106616;27;45500;-81
2022/05/08 01:15:41;;;;;;;5.03;3.20;;;19.50;92.00;;;;;;5107699;27;46585;-82
2022/05/08 01:18:08;;;;;;;4.32;3.47;;;19.60;92.00;;;;;;5106683;27;45550;-82
2022/05/08 01:20:35;;;;;;;5.13;3.70;;;19.50;91.90;;;;;;5104173;27;45617;-81
2022/05/08 01:23:05;;;;;;;4.07;3.25;;;19.60;91.90;;;;;;5108077;27;45291;-81
2022/05/08 01:25:32;;;;;;;3.90;3.28;;;19.60;91.80;;;;;;5105490;27;46266;-81
2022/05/08 01:28:00;;;;;;;3.05;2.65;;;19.50;91.70;;;;;;5107981;27;45350;-81
2022/05/08 01:30:26;;;;;;;3.40;2.60;;;19.50;91.70;;;;;;5101560;27;45217;-81
2022/05/08 01:32:53;;;;;;;4.30;2.92;;;19.50;91.60;;;;;;5108249;27;45233;-81
2022/05/08 01:35:20;;;;;;;3.40;2.67;;;19.60;91.60;;;;;;5109003;27;46618;-81
2022/05/08 01:37:47;;;;;;;4.00;2.60;;;19.50;91.30;;;;;;5105487;27;45441;-82
2022/05/08 01:40:17;;;;;;;3.47;2.25;;;19.50;91.30;;;;;;5106986;27;46431;-81
2022/05/08 01:42:44;;;;;;;3.88;2.50;;;19.50;91.20;;;;;;5105395;27;45324;-81
2022/05/08 01:45:12;;;;;;;4.40;2.58;;;19.50;91.20;;;;;;5108691;27;45445;-81
2022/05/08 01:50:23;;;;;;;3.95;2.38;;;19.50;91.00;;;;;;5105616;27;45187;-82
2022/05/08 01:52:50;;;;;;;2.08;1.88;;;19.50;91.00;;;;;;5107602;27;45595;-82
2022/05/08 01:55:18;;;;;;;2.45;2.20;;;19.50;90.90;;;;;;5106167;27;45525;-81
2022/05/08 01:57:45;;;;;;;3.50;2.30;;;19.50;90.80;;;;;;5109389;27;45218;-81
2022/05/08 02:00:13;;;;;;;3.40;2.20;;;19.50;90.70;;;;;;5114702;27;45299;-81
2022/05/08 02:02:40;;;;;;;3.10;2.00;;;19.60;90.60;;;;;;5108460;27;45516;-82
2022/05/08 02:05:08;;;;;;;3.72;1.92;;;19.50;90.60;;;;;;5103733;27;47359;-81
2022/05/08 02:07:35;;;;;;;3.58;2.00;;;19.50;90.60;;;;;;5111640;27;45159;-81
2022/05/08 02:10:03;;;;;;;2.78;2.05;;;19.50;90.40;;;;;;5103919;27;45404;-81
2022/05/08 02:12:31;;;;;;;2.97;1.88;;;19.50;90.40;;;;;;5107663;27;45349;-81
2022/05/08 02:14:58;;;;;;;3.88;2.05;;;19.50;90.30;;;;;;5106456;27;46181;-81
2022/05/08 02:17:25;;;;;;;2.47;1.60;;;19.50;90.40;;;;;;5107518;27;45370;-81
2022/05/08 02:19:52;;;;;;;1.52;1.35;;;19.50;90.40;;;;;;5107023;27;45220;-81
2022/05/08 02:22:18;;;;;;;2.50;1.95;;;19.50;90.30;;;;;;5105699;27;45305;-81
2022/05/08 02:24:45;;;;;;;1.42;1.23;;;19.50;90.30;;;;;;5111085;27;46182;-81
2022/05/08 02:27:12;;;;;;;3.80;2.13;;;19.50;90.20;;;;;;5109522;27;45228;-81
2022/05/08 02:29:40;;;;;;;2.22;1.80;;;19.50;90.10;;;;;;5106287;27;45266;-81
2022/05/08 02:32:07;;;;;;;2.47;1.55;;;19.50;90.00;;;;;;5106993;27;45373;-81
2022/05/08 02:34:34;;;;;;;2.67;1.60;;;19.50;90.00;;;;;;5107337;27;47132;-81
2022/05/08 02:37:01;;;;;;;1.67;1.40;;;19.50;89.40;;;;;;5105802;27;45327;-81
2022/05/08 02:39:28;;;;;;;2.13;1.50;;;19.50;89.60;;;;;;5106590;27;45160;-81
2022/05/08 02:41:55;;;;;;;2.47;1.70;;;19.50;89.40;;;;;;5107492;27;45267;-81
2022/05/08 02:44:21;;;;;;;1.60;1.35;;;19.50;89.30;;;;;;5107075;27;47404;-81
2022/05/08 02:46:50;;;;;;;4.28;1.48;;;19.50;89.30;;;;;;5111419;27;45548;-81
2022/05/08 02:49:16;;;;;;;2.88;1.60;;;19.50;89.00;;;;;;5105911;27;45256;-81
2022/05/08 02:51:43;;;;;;;2.78;1.40;;;19.50;88.90;;;;;;5105328;27;45271;-81
2022/05/08 02:54:10;;;;;;;1.90;1.30;;;19.50;89.00;;;;;;5107003;27;48018;-81
2022/05/08 02:59:21;;;;;;;2.35;1.48;;;19.50;88.70;;;;;;5098233;27;45242;-81
2022/05/08 03:01:49;;;;;;;2.22;1.40;;;19.50;88.70;;;;;;5104137;27;45160;-81
2022/05/08 03:04:17;;;;;;;2.90;1.42;;;19.50;88.30;;;;;;5107665;27;46968;-81
2022/05/08 03:06:44;;;;;;;1.85;1.55;;;19.50;88.40;;;;;;5108224;27;45343;-81
2022/05/08 03:09:11;;;;;;;2.80;1.65;;;19.50;88.10;;;;;;5099563;27;45340;-81
2022/05/08 03:11:38;;;;;;;1.85;1.42;;;19.50;87.90;;;;;;5105700;27;45516;-81
2022/05/08 03:14:04;;;;;;;3.05;1.60;;;19.50;87.90;;;;;;5104943;27;46193;-81
2022/05/08 03:16:31;;;;;;;3.08;1.70;;;19.50;88.00;;;;;;5107278;27;45573;-81
2022/05/08 03:18:59;;;;;;;1.98;1.42;;;19.50;87.70;;;;;;5105636;27;45334;-82
2022/05/08 03:21:26;;;;;;;2.17;1.90;;;19.50;87.70;;;;;;5103474;27;45335;-81
2022/05/08 03:23:53;;;;;;;1.80;1.60;;;19.50;87.50;;;;;;5106992;27;47421;-81
2022/05/08 03:26:20;;;;;;;1.92;1.52;;;19.50;87.20;;;;;;5106507;27;45175;-81
2022/05/08 03:28:48;;;;;;;2.08;1.50;;;19.50;87.10;;;;;;5100859;27;45291;-81
2022/05/08 03:31:15;;;;;;;2.65;1.60;;;19.50;87.10;;;;;;5106622;27;45888;-81
2022/05/08 03:33:42;;;;;;;1.73;1.55;;;19.50;87.00;;;;;;5106857;27;47078;-81
2022/05/08 03:36:11;;;;;;;2.53;1.50;;;19.50;86.70;;;;;;5105342;27;45310;-81
2022/05/08 03:38:42;;;;;;;2.00;1.60;;;19.50;86.70;;;;;;5105424;27;45374;-81
2022/05/08 03:41:09;;;;;;;1.67;1.40;;;19.50;86.40;;;;;;5105144;27;45270;-81
2022/05/08 03:43:37;;;;;;;3.22;1.85;;;19.50;86.60;;;;;;5107796;27;47344;-81
2022/05/08 03:46:04;;;;;;;2.38;1.67;;;19.50;86.20;;;;;;5106033;27;45297;-81
2022/05/08 03:48:31;;;;;;;2.65;1.70;;;19.50;86.10;;;;;;5105263;27;45388;-81
2022/05/08 03:50:58;;;;;;;3.47;1.85;;;19.50;85.90;;;;;;5105118;27;45217;-81
2022/05/08 03:53:26;;;;;;;2.58;1.80;;;19.50;85.70;;;;;;5105268;27;46202;-81
2022/05/08 03:55:54;;;;;;;2.05;1.52;;;19.50;86.00;;;;;;5104340;27;45313;-81
2022/05/08 03:58:21;;;;;;;2.25;1.70;;;19.50;85.40;;;;;;5104046;27;45139;-82
2022/05/08 04:00:48;;;;;;;1.85;1.60;;;19.50;85.60;;;;;;5106147;27;45343;-81
2022/05/08 04:03:14;;;;;;;2.30;1.92;;;19.50;85.50;;;;;;5106813;27;45489;-81
2022/05/08 04:05:41;;;;;;;1.70;1.60;;;19.50;85.30;;;;;;5107556;27;45388;-81
2022/05/08 04:08:08;;;;;;;2.75;2.00;;;19.50;85.20;;;;;;5106803;27;45248;-81
2022/05/08 04:10:36;;;;;;;3.88;1.95;;;19.50;85.20;;;;;;5106234;27;45323;-81
2022/05/08 04:13:03;;;;;;;2.60;1.75;;;19.50;84.90;;;;;;5105478;27;46295;-81
2022/05/08 04:18:14;;;;;;;3.20;2.20;;;19.40;84.80;;;;;;5111720;27;46313;-81
2022/05/08 04:20:41;;;;;;;2.30;1.90;;;19.50;84.50;;;;;;5109752;27;45189;-81
2022/05/08 04:25:54;;;;;;;3.47;2.13;;;19.50;84.60;;;;;;5109276;27;45277;-81
2022/05/08 04:28:21;;;;;;;2.78;2.15;;;19.40;84.30;;;;;;5101201;27;45137;-81
2022/05/08 04:30:50;;;;;;;4.00;2.60;;;19.50;84.40;;;;;;5109695;27;45103;-81
2022/05/08 04:33:16;;;;;;;3.40;2.25;;;19.50;83.80;;;;;;5109391;27;47950;-81
2022/05/08 04:35:43;;;;;;;3.90;2.17;;;19.50;84.30;;;;;;5109620;27;45527;-81
2022/05/08 04:38:11;;;;;;;3.50;2.08;;;19.50;84.00;;;;;;5110520;27;45446;-81
2022/05/08 04:40:39;;;;;;;3.78;2.25;;;19.50;84.20;;;;;;5108620;27;45357;-81
2022/05/08 04:43:08;;;;;;;2.75;2.40;;;19.50;83.40;;;;;;5108288;27;46739;-80
2022/05/08 04:45:35;;;;;;;3.42;2.10;;;19.50;83.30;;;;;;5102945;27;45238;-81
2022/05/08 04:48:01;;;;;;;4.65;2.47;;;19.50;83.50;;;;;;5108021;27;45273;-81
2022/05/08 04:50:28;;;;;;;2.88;2.40;;;19.50;83.60;;;;;;5106873;27;46067;-81
2022/05/08 04:52:55;;;;;;;2.95;2.30;;;19.50;83.60;;;;;;5105630;27;45688;-81
2022/05/08 04:55:22;;;;;;;3.20;2.42;;;19.50;83.40;;;;;;5108421;27;45870;-81
2022/05/08 04:57:49;;;;;;;4.32;2.60;;;19.50;83.00;;;;;;5109280;27;45347;-81
2022/05/08 05:00:18;;;;;;;4.40;3.13;;;19.50;83.20;;;;;;5106366;27;45405;-81
2022/05/08 05:02:45;;;;;;;5.07;2.80;;;19.50;83.10;;;;;;5106696;27;47942;-81
2022/05/08 05:05:11;;;;;;;3.95;2.97;;;19.50;83.40;;;;;;5106496;27;47158;-81
2022/05/08 05:07:39;;;;;;;3.80;2.95;;;19.50;83.40;;;;;;5115086;27;45160;-81
2022/05/08 05:10:08;;;;;;;4.22;2.70;;;19.50;83.30;;;;;;5103031;27;45830;-81
2022/05/08 05:12:35;;;;;;;5.65;3.00;;;19.40;83.40;;;;;;5109535;27;45287;-81
2022/05/08 05:15:02;;;;;;;3.83;3.00;;;19.50;83.10;;;;;;5108965;27;45333;-81
2022/05/08 05:17:30;;;;;;;5.38;3.70;;;19.50;83.00;;;;;;5109239;27;45411;-81
2022/05/08 05:19:57;;;;;;;4.68;3.20;;;19.50;82.90;;;;;;5106162;27;45422;-81
2022/05/08 05:22:24;;;;;;;4.80;3.20;;;19.50;82.80;;;;;;5108320;27;46233;-81
2022/05/08 05:24:51;;;;;;;4.38;3.42;;;19.50;82.70;;;;;;5107000;27;45279;-81
2022/05/08 05:27:18;;;;;;;4.47;3.28;;;19.50;82.40;;;;;;5107238;27;46272;-81
2022/05/08 05:29:45;;;;;;;4.80;3.75;;;19.50;82.30;;;;;;5105703;27;45829;-81
2022/05/08 05:32:12;;;;;;;4.68;3.40;;;19.40;82.30;;;;;;5106003;27;46590;-81
2022/05/08 05:34:40;;;;;;;4.10;3.30;;;19.50;82.20;;;;;;5108794;27;45545;-81
2022/05/08 05:37:07;;;;;;;4.90;3.70;;;19.50;81.90;;;;;;5105351;27;45579;-81
2022/05/08 05:39:34;;;;;;;4.28;3.20;;;19.50;81.80;;;;;;5107831;27;45354;-81
2022/05/08 05:42:01;;;;;;;5.57;3.83;;;19.50;81.80;;;;;;5106710;27;46417;-81
2022/05/08 05:44:28;;;;;;;4.15;3.42;;;19.50;81.90;;;;;;5106766;27;45404;-81
2022/05/08 05:49:40;;;;;;;4.63;3.28;;;19.50;81.60;;;;;;5104370;27;45382;-81
2022/05/08 05:52:08;;;;;;;6.18;3.67;;;19.50;81.60;;;;;;5109122;27;47879;-81
2022/05/08 05:54:35;;;;;;;5.00;3.67;;;19.50;81.20;;;;;;5107016;27;45258;-81
2022/05/08 05:57:02;;;;;;;5.68;3.00;;;19.50;81.30;;;;;;5107641;27;45173;-81
2022/05/08 05:59:29;;;;;;;3.83;2.72;;;19.50;80.90;;;;;;5107919;27;45474;-81
2022/05/08 06:01:56;;;;;;;3.42;3.03;;;19.50;80.80;;;;;;5107201;27;46993;-81
2022/05/08 06:04:23;;;;;;;5.13;3.28;;;19.40;80.70;;;;;;5106179;27;45503;-82
2022/05/08 06:06:52;;;;;;;4.53;2.75;;;19.40;80.60;;;;;;5113955;27;45306;-81
2022/05/08 06:09:19;;;;;;;4.63;3.00;;;19.50;80.40;;;;;;5105983;27;45173;-82
2022/05/08 06:11:46;;;;;;;4.65;3.35;;;19.40;79.80;;;;;;5106272;27;46176;-81
2022/05/08 06:14:13;;;;;;;3.58;2.80;;;19.50;80.40;;;;;;5105963;27;46257;-82
2022/05/08 06:16:41;;;;;;;4.25;3.05;;;19.40;79.90;;;;;;5104026;27;45214;-81
2022/05/08 06:19:08;;;;;;;7.25;3.10;;;19.40;79.90;;;;;;5109248;27;45385;-82
2022/05/08 06:21:35;;;;;;;5.45;3.30;;;19.40;80.00;;;;;;5104633;27;47652;-81
2022/05/08 06:24:03;;;;;;;6.35;3.60;;;19.40;79.80;;;;;;5103608;27;45298;-81
2022/05/08 06:26:30;;;;;;;3.67;3.00;;;19.40;79.80;;;;;;5103787;27;45297;-81
2022/05/08 06:28:58;;;;;;;3.72;2.80;;;19.40;80.10;;;;;;5102164;27;45491;-81
2022/05/08 06:31:25;;;;;;;5.32;3.03;;;19.40;79.50;;;;;;5100565;27;46307;-82
2022/05/08 06:33:52;;;;;;;5.20;3.08;;;19.40;79.80;;;;;;5105671;27;45621;-82
2022/05/08 06:36:19;;;;;;;5.13;3.08;;;19.40;79.40;;;;;;5107544;27;45866;-81
2022/05/08 06:38:46;;;;;;;4.10;2.80;;;19.50;79.40;;;;;;5105543;27;45248;-81
2022/05/08 06:41:14;;;;;;;5.45;2.80;;;19.40;79.20;;;;;;5101945;27;46158;-81
2022/05/08 06:43:41;;;;;;;3.97;2.80;;;19.40;78.90;;;;;;5108303;27;45348;-81
2022/05/08 06:46:08;;;;;;;5.82;2.70;;;19.40;78.80;;;;;;5104336;27;45214;-82
2022/05/08 06:48:35;;;;;;;4.70;2.78;;;19.40;78.90;;;;;;5105941;27;45330;-81
2022/05/08 06:51:03;;;;;;;4.78;2.28;;;19.40;79.30;;;;;;5104060;27;45328;-81
2022/05/08 06:53:30;;;;;;;3.78;2.17;;;19.40;78.50;;;;;;5102393;27;45627;-81
2022/05/08 06:55:57;;;;;;;4.72;2.78;;;19.40;78.40;;;;;;5103553;27;46462;-81
2022/05/08 06:58:25;;;;;;;4.53;2.75;;;19.40;77.70;;;;;;5106009;27;45192;-81
2022/05/08 07:03:38;;;;;;;4.13;2.40;;;19.40;77.70;;;;;;5103251;27;45243;-81
2022/05/08 07:06:06;;;;;;;4.50;2.47;;;19.40;77.70;;;;;;5101445;27;45620;-82
2022/05/08 07:08:33;;;;;;;5.78;2.53;;;19.40;77.30;;;;;;5103437;27;46694;-82
2022/05/08 07:11:01;;;;;;;5.28;2.40;;;19.40;77.70;;;;;;5105557;27;45307;-81
2022/05/08 07:13:30;;;;;;;4.03;2.17;;;19.40;77.60;;;;;;5104746;27;45322;-81
2022/05/08 07:15:56;;;;;;;7.10;2.40;;;19.40;77.70;;;;;;5103419;27;45379;-82
2022/05/08 07:18:23;;;;;;;4.97;2.05;;;19.40;78.10;;;;;;5104493;27;45459;-82
2022/05/08 07:20:50;;;;;;;6.07;2.35;;;19.40;77.70;;;;;;5103145;27;45264;-82
2022/05/08 07:23:17;;;;;;;5.35;2.17;;;19.40;77.70;;;;;;5101533;27;45426;-82
2022/05/08 07:25:44;;;;;;;5.40;2.20;;;19.40;77.70;;;;;;5102445;27;45279;-82
2022/05/08 07:28:10;;;;;;;4.80;2.30;;;19.40;77.10;;;;;;5106643;27;45405;-82
2022/05/08 07:30:39;;;;;;;4.90;2.35;;;19.50;77.00;;;;;;5098786;27;46281;-81
2022/05/08 07:33:07;;;;;;;5.13;2.40;;;19.40;76.40;;;;;;5099470;27;45519;-82
2022/05/08 07:38:21;;;;;;;4.15;2.15;;;19.50;76.30;;;;;;5102162;27;45390;-82
2022/05/08 07:40:50;;;;;;;6.07;2.20;;;19.50;75.90;;;;;;5106438;27;46003;-82
2022/05/08 07:43:17;;;;;;;4.18;1.90;;;19.50;75.20;;;;;;5103298;27;46598;-82
2022/05/08 07:45:45;;;;;;;4.05;2.03;;;19.50;74.80;;;;;;5107246;27;45261;-82
2022/05/08 07:48:13;;;;;;;3.60;2.00;;;19.50;75.10;;;;;;5103270;27;46131;-81
2022/05/08 07:50:40;;;;;;;3.72;2.00;;;19.50;74.60;;;;;;5100003;27;45420;-81
2022/05/08 07:53:07;;;;;;;3.63;1.88;;;19.50;74.90;;;;;;5104453;27;45255;-82
2022/05/08 07:55:34;;;;;;;2.88;1.70;;;19.40;75.00;;;;;;5102619;27;45259;-82
2022/05/08 07:58:01;;;;;;;4.80;2.00;;;19.50;75.70;;;;;;5095151;27;45496;-82
2022/05/08 08:00:28;;;;;;;2.78;1.50;;;19.50;75.40;;;;;;5100047;27;47043;-82
2022/05/08 08:02:56;;;;;;;3.90;1.88;;;19.50;75.30;;;;;;5119814;27;45355;-82
2022/05/08 08:05:23;;;;;;;5.88;2.03;;;19.50;75.10;;;;;;5109883;27;45334;-82
2022/05/08 08:07:50;;;;;;;4.00;1.92;;;19.50;75.10;;;;;;5107054;27;45415;-81
2022/05/08 08:10:17;;;;;;;4.85;1.88;;;19.50;75.20;;;;;;5104442;27;46184;-81
2022/05/08 08:12:44;;;;;;;7.40;2.58;;;19.40;75.00;;;;;;5104043;27;45255;-81
2022/05/08 08:15:11;;;;;;;5.40;1.85;;;19.40;74.70;;;;;;5105358;27;45396;-81
2022/05/08 08:17:39;;;;;;;4.18;1.98;;;19.50;74.80;;;;;;5108212;27;45198;-81
2022/05/08 08:20:09;;;;;;;4.15;2.08;;;19.40;74.70;;;;;;5096375;27;46371;-81
2022/05/08 08:22:36;;;;;;;4.80;2.35;;;19.40;74.80;;;;;;5104362;27;45360;-81
2022/05/08 08:25:04;;;;;;;4.43;2.08;;;19.40;74.40;;;;;;5097882;27;45393;-80
2022/05/08 08:27:30;;;;;;;5.43;2.13;;;19.40;74.10;;;;;;5085842;27;46492;-81
2022/05/08 08:29:57;;;;;;;4.55;2.00;;;19.40;74.00;;;;;;5100656;27;47874;-81
2022/05/08 08:32:24;;;;;;;6.38;2.30;;;19.40;74.00;;;;;;5104068;27;45668;-81
2022/05/08 08:34:53;;;;;;;4.13;2.13;;;19.40;73.60;;;;;;5120445;27;45645;-81
2022/05/08 08:37:21;;;;;;;4.53;1.95;;;19.40;73.40;;;;;;5115974;27;45525;-81
2022/05/08 08:39:48;;;;;;;3.95;2.22;;;19.40;72.80;;;;;;5103035;27;46193;-81
2022/05/08 08:42:25;;;;;;;3.92;2.13;;;19.40;73.30;;;;;;5104472;27;45322;-81
2022/05/08 08:47:44;;;;;;;6.35;2.60;;;19.40;73.60;;;;;;5105228;27;45241;-81
2022/05/08 08:50:11;;;;;;;8.10;2.15;;;19.50;73.10;;;;;;5120785;27;46531;-81
2022/05/08 08:52:40;;;;;;;5.15;2.20;;;19.40;72.90;;;;;;5127884;27;45164;-81
2022/05/08 08:55:08;;;;;;;4.03;1.63;;;19.50;73.30;;;;;;5128252;27;45139;-81
2022/05/08 08:57:36;;;;;;;4.32;1.92;;;19.50;72.90;;;;;;5107853;27;45604;-81
2022/05/08 09:00:03;;;;;;;3.92;1.75;;;19.50;72.90;;;;;;5112303;27;48253;-81
2022/05/08 09:02:30;;;;;;;4.07;1.85;;;19.50;72.40;;;;;;5131509;27;45269;-81
2022/05/08 09:04:57;;;;;;;5.50;2.20;;;19.50;72.60;;;;;;5113286;27;45508;-81
2022/05/08 09:07:42;;;;;;;3.80;1.65;;;19.50;72.40;;;;;;5112483;27;45739;-80
2022/05/08 09:10:13;;;;;;;3.33;1.63;;;19.50;72.20;;;;;;5108127;27;47017;-81
2022/05/08 09:12:42;;;;;;;6.40;1.90;;;19.50;72.50;;;;;;5110565;27;45160;-81
2022/05/08 09:15:20;;;;;;;2.80;1.60;;;19.50;72.80;;;;;;5122183;27;45362;-81
2022/05/08 09:17:47;;;;;;;4.20;2.00;;;19.50;73.20;;;;;;5126618;27;45259;-81
2022/05/08 09:20:32;;;;;;;4.38;1.90;;;19.50;73.30;;;;;;5109714;27;48062;-81
2022/05/08 09:23:09;;;;;;;4.40;2.08;;;19.60;73.30;;;;;;5106617;27;45186;-83
2022/05/08 09:25:44;;;;;;;4.32;1.70;;;19.60;73.30;;;;;;5107813;27;45221;-81
2022/05/08 09:28:11;;;;;;;3.60;1.60;;;19.60;73.10;;;;;;5111117;27;45315;-80
2022/05/08 09:31:03;;;;;;;4.32;1.70;;;19.60;73.00;;;;;;5108919;27;46501;-81
2022/05/08 09:33:32;;;;;;;4.22;1.90;;;19.60;73.30;;;;;;5108622;27;45380;-81
2022/05/08 09:36:00;;;;;;;2.88;1.45;;;19.60;73.40;;;;;;5110678;27;45217;-81
2022/05/08 09:38:49;;;;;;;4.30;1.77;;;19.60;73.60;;;;;;5109941;27;45226;-80
2022/05/08 09:41:19;;;;;;;4.80;1.70;;;19.60;73.70;;;;;;5088107;28;45188;-81
2022/05/08 09:43:46;;;;;;;4.65;1.80;;;19.60;73.70;;;;;;5096533;27;45667;-81
2022/05/08 09:46:13;;;;;;;4.05;1.75;;;19.60;73.60;;;;;;5130464;27;45327;-80
2022/05/08 09:48:40;;;;;;;4.20;1.70;;;19.60;73.80;;;;;;5130210;27;45411;-81
2022/05/08 09:51:07;;;;;;;3.88;1.85;;;19.60;73.70;;;;;;5130616;27;46186;-81
2022/05/08 09:53:36;;;;;;;5.53;1.65;;;19.60;73.80;;;;;;5119629;27;45286;-80
2022/05/08 09:56:06;;;;;;;4.68;1.80;;;19.60;73.80;;;;;;5110141;27;45256;-81
2022/05/08 09:58:33;;;;;;;3.45;1.50;;;19.70;73.50;;;;;;5112636;27;45139;-81
2022/05/08 10:01:01;;;;;;;4.05;1.55;;;19.70;73.40;;;;;;5130495;27;46165;-81
2022/05/08 10:03:30;;;;;;;5.22;1.27;;;19.70;73.10;;;;;;5130753;27;45217;-80
2022/05/08 10:05:59;;;;;;;3.60;1.20;;;19.70;72.90;;;;;;5128208;27;45316;-81
2022/05/08 10:08:29;;;;;;;2.80;1.50;;;19.70;72.80;;;;;;5106627;27;45172;-81
2022/05/08 10:13:54;;;;;;;3.45;1.67;;;19.70;72.90;;;;;;5088151;28;45390;-81
2022/05/08 10:16:43;;;;;;;3.33;1.35;;;19.70;72.90;;;;;;5089380;28;45275;-81
2022/05/08 10:19:58;;;;;;;3.33;1.48;;;19.70;73.10;;;;;;5104579;27;45235;-81
2022/05/08 10:22:25;;;;;;;2.85;1.40;;;19.70;72.80;;;;;;5109428;27;46320;-81
2022/05/08 10:24:56;;;;;;;2.63;1.40;;;19.60;73.00;;;;;;5107905;27;45171;-81
2022/05/08 10:27:28;;;;;;;4.85;1.55;;;19.70;72.70;;;;;;5127652;27;45288;-81
2022/05/08 10:30:23;;;;;;;3.55;1.45;;;19.70;72.90;;;;;;5111567;27;45367;-81
2022/05/08 10:32:51;;;;;;;2.33;1.20;;;19.60;72.80;;;;;;5109335;27;45223;-81
2022/05/08 10:35:20;;;;;;;3.13;1.02;;;19.60;72.20;;;;;;5112159;27;45372;-81
2022/05/08 10:37:47;;;;;;;3.60;1.52;;;19.60;72.50;;;;;;5089147;28;45168;-81
2022/05/08 10:40:32;;;;;;;2.85;1.08;;;19.60;72.20;;;;;;5099508;27;45406;-81
2022/05/08 10:43:01;;;;;;;2.33;1.40;;;19.60;71.50;;;;;;5109081;27;47816;-81
2022/05/08 10:45:42;;;;;;;4.45;1.35;;;19.60;71.40;;;;;;5120868;27;45296;-81
2022/05/08 10:48:12;;;;;;;2.55;1.15;;;19.70;70.90;;;;;;5109256;27;45289;-81
2022/05/08 10:50:40;;;;;;;3.00;1.40;;;19.70;70.80;;;;;;5116901;27;45228;-81
2022/05/08 10:53:20;;;;;;;2.35;1.10;;;19.70;70.60;;;;;;5129983;27;48485;-81
2022/05/08 10:55:46;;;;;;;1.08;0.80;;;19.70;70.40;;;;;;5129117;27;45880;-81
2022/05/08 10:58:13;;;;;;;2.88;1.20;;;19.70;70.40;;;;;;5117983;27;45196;-81
2022/05/08 11:00:42;;;;;;;3.22;1.00;;;19.70;70.00;;;;;;5119637;27;45147;-81
2022/05/08 11:03:09;;;;;;;2.85;1.08;;;19.70;70.20;;;;;;5118218;27;47956;-81
2022/05/08 11:05:37;;;;;;;2.70;1.02;;;19.70;70.30;;;;;;5110689;27;45227;-81
2022/05/08 11:08:07;;;;;;;2.30;1.20;;;19.60;70.20;;;;;;5107127;27;45309;-81
2022/05/08 11:10:35;;;;;;;2.85;1.25;;;19.60;70.10;;;;;;5085479;28;45407;-82
2022/05/08 11:13:04;;;;;;;1.38;0.88;;;19.60;70.00;;;;;;5098339;27;45423;-81
2022/05/08 11:15:33;;;;;;;2.78;0.95;;;19.60;70.00;;;;;;5107629;27;45226;-81
2022/05/08 11:18:09;;;;;;;2.95;1.20;;;19.60;70.00;;;;;;5108997;27;45215;-81
2022/05/08 11:20:37;;;;;;;3.53;1.33;;;19.60;69.40;;;;;;5107697;27;45516;-81
2022/05/08 11:23:05;;;;;;;3.22;1.00;;;19.60;69.60;;;;;;5107278;27;46641;-81
2022/05/08 11:25:32;;;;;;;2.17;0.93;;;19.60;69.40;;;;;;5108995;27;45195;-82
2022/05/08 11:27:59;;;;;;;2.05;0.95;;;19.60;68.80;;;;;;5113745;27;45187;-81
2022/05/08 11:30:30;;;;;;;4.40;1.20;;;19.60;68.40;;;;;;5120976;27;45523;-81
2022/05/08 11:36:06;;;;;;;1.65;0.80;;;19.60;68.00;;;;;;5076100;27;45311;-81
2022/05/08 11:38:40;;;;;;;2.08;0.82;;;19.60;66.90;;;;;;5087539;28;45236;-81
2022/05/08 11:41:08;;;;;;;2.38;1.00;;;19.60;67.10;;;;;;5112956;27;45564;-81
2022/05/08 11:43:40;;;;;;;2.65;1.08;;;19.60;66.70;;;;;;5128911;27;46464;-81
2022/05/08 11:46:08;;;;;;;3.45;1.17;;;19.60;67.00;;;;;;5127163;27;45229;-81
2022/05/08 11:48:40;;;;;;;2.70;1.00;;;19.60;67.10;;;;;;5128667;27;45231;-81
2022/05/08 11:51:09;;;;;;;2.17;1.13;;;19.60;66.60;;;;;;5107430;27;45594;-81
2022/05/08 11:53:40;;;;;;;2.45;0.93;;;19.60;66.60;;;;;;5109378;27;45318;-81
2022/05/08 11:56:24;;;;;;;1.70;0.90;;;19.70;66.40;;;;;;5107617;27;45290;-81
2022/05/08 11:58:51;;;;;;;2.42;1.17;;;19.70;66.90;;;;;;5106816;27;45308;-81
2022/05/08 12:01:25;;;;;;;1.55;0.70;;;19.70;66.40;;;;;;5108758;27;45439;-81
2022/05/08 12:03:52;;;;;;;3.08;1.00;;;19.60;65.90;;;;;;5107892;27;47403;-81
2022/05/08 12:06:22;;;;;;;2.78;1.02;;;19.60;66.50;;;;;;5121934;27;45266;-81
2022/05/08 12:08:49;;;;;;;2.25;0.95;;;19.60;66.00;;;;;;5105458;27;45569;-81
2022/05/08 12:11:30;;;;;;;2.50;0.90;;;19.60;66.40;;;;;;5105957;27;45512;-81
2022/05/08 12:14:01;;;;;;;1.42;0.88;;;19.60;65.70;;;;;;5107978;27;47412;-81
2022/05/08 12:16:28;;;;;;;2.03;0.90;;;19.60;65.40;;;;;;5108040;27;45620;-81
2022/05/08 12:19:16;;;;;;;2.25;0.80;;;19.60;65.90;;;;;;5110166;27;45245;-81
2022/05/08 12:21:45;;;;;;;2.90;0.90;;;19.60;65.20;;;;;;5107697;27;45161;-81
2022/05/08 12:24:14;;;;;;;2.13;1.00;;;19.60;64.90;;;;;;5108133;27;47355;-81
2022/05/08 12:26:41;;;;;;;1.25;0.80;;;19.60;65.20;;;;;;5114716;27;45225;-81
2022/05/08 12:29:15;;;;;;;2.30;0.70;;;19.60;65.40;;;;;;5107698;27;45653;-81
2022/05/08 12:31:42;;;;;;;1.23;0.70;;;19.60;65.00;;;;;;5106836;27;45224;-81
2022/05/08 12:34:11;;;;;;;3.83;0.80;;;19.60;65.30;;;;;;5109315;27;47896;-81
2022/05/08 12:36:39;;;;;;;2.88;0.90;;;19.60;65.30;;;;;;5109743;27;45280;-82
2022/05/08 12:39:08;;;;;;;1.85;0.80;;;19.70;64.80;;;;;;5109380;27;45332;-81
2022/05/08 12:41:36;;;;;;;1.40;0.63;;;19.60;64.90;;;;;;5112741;27;45192;-81
2022/05/08 12:44:03;;;;;;;2.00;0.75;;;19.60;65.00;;;;;;5113290;27;45321;-81
2022/05/08 12:46:30;;;;;;;1.05;0.50;;;19.70;64.80;;;;;;5129534;27;45473;-81
2022/05/08 12:49:02;;;;;;;3.35;0.95;;;19.70;64.70;;;;;;5117399;27;45317;-81
2022/05/08 12:51:31;;;;;;;1.30;0.82;;;19.70;64.50;;;;;;5129696;27;45213;-81
2022/05/08 12:53:58;;;;;;;1.75;0.85;;;19.60;64.50;;;;;;5131277;27;46291;-81
2022/05/08 12:56:26;;;;;;;2.22;0.80;;;19.70;64.70;;;;;;5131638;27;45371;-82
2022/05/08 13:01:38;;;;;;;1.60;0.75;;;19.60;64.50;;;;;;5107167;27;45209;-81
2022/05/08 13:04:06;;;;;;;2.25;0.80;;;19.60;64.60;;;;;;5110353;27;47458;-81
2022/05/08 13:06:33;;;;;;;2.65;0.93;;;19.70;64.30;;;;;;5120902;27;45192;-81
2022/05/08 13:09:00;;;;;;;1.40;0.80;;;19.60;64.00;;;;;;5112366;27;45348;-81
2022/05/08 13:11:29;;;;;;;1.10;0.50;;;19.60;64.10;;;;;;5119106;27;45352;-81
2022/05/08 13:13:56;;;;;;;1.73;0.77;;;19.60;64.00;;;;;;5110740;27;46595;-81
2022/05/08 13:16:23;;;;;;;2.50;0.90;;;19.60;63.90;;;;;;5110370;27;45150;-81
2022/05/08 13:18:51;;;;;;;2.28;0.70;;;19.60;63.50;;;;;;5109015;27;45349;-81
2022/05/08 13:21:18;;;;;;;1.42;0.88;;;19.60;63.40;;;;;;5131741;27;45264;-81
2022/05/08 13:23:45;;;;;;;1.35;0.57;;;19.60;64.00;;;;;;5130978;27;46370;-82
2022/05/08 13:26:12;;;;;;;1.88;0.80;;;19.60;64.00;;;;;;5110700;27;45685;-81